createdAt,value
2023-06-15T00:03:22.512Z,14.40
2023-06-15T00:08:25.450Z,14.30
2023-06-15T00:13:29.748Z,14.20
2023-06-15T00:18:33.312Z,14.20
2023-06-15T00:23:36.104Z,14.10
2023-06-15T00:28:40.117Z,14.00
2023-06-15T00:33:42.924Z,14.10
2023-06-15T00:38:45.834Z,14.10
2023-06-15T00:43:49.872Z,14.10
2023-06-15T00:48:52.800Z,14.30
2023-06-15T00:53:55.889Z,14.20
2023-06-15T00:59:00.305Z,14.40
2023-06-15T01:04:03.164Z,14.40
2023-06-15T01:09:06.513Z,14.40
2023-06-15T01:14:10.982Z,14.50
2023-06-15T01:19:30.754Z,14.50
2023-06-15T01:24:38.623Z,14.50
2023-06-15T01:29:42.989Z,14.30
2023-06-15T01:34:45.770Z,14.20
2023-06-15T01:39:48.656Z,14.40
2023-06-15T01:44:54.453Z,14.50
2023-06-15T01:49:57.596Z,14.30
2023-06-15T01:55:00.606Z,14.20
2023-06-15T02:00:05.800Z,14.20
2023-06-15T02:05:09.502Z,14.00
2023-06-15T02:10:12.741Z,14.00
2023-06-15T02:15:17.033Z,14.00
2023-06-15T02:20:20.035Z,14.00
2023-06-15T02:25:22.802Z,14.00
2023-06-15T02:30:27.519Z,14.00
2023-06-15T02:35:30.622Z,13.90
2023-06-15T02:40:33.539Z,14.00
2023-06-15T02:45:38.797Z,14.00
2023-06-15T02:50:41.491Z,13.90
2023-06-15T02:55:44.194Z,14.00
2023-06-15T03:00:50.221Z,13.80
2023-06-15T03:05:53.269Z,13.70
2023-06-15T03:10:55.956Z,13.80
2023-06-15T03:16:02.644Z,13.80
2023-06-15T03:21:08.895Z,13.90
2023-06-15T03:26:11.722Z,13.90
2023-06-15T03:31:18.372Z,13.70
2023-06-15T03:36:26.624Z,13.60
2023-06-15T03:41:31.150Z,13.60
2023-06-15T03:46:35.402Z,13.40
2023-06-15T03:51:38.247Z,13.30
2023-06-15T03:56:41.153Z,13.30
2023-06-15T04:01:45.793Z,13.50
2023-06-15T04:06:49.000Z,14.00
2023-06-15T04:11:51.897Z,14.20
2023-06-15T04:16:58.819Z,14.30
2023-06-15T04:22:01.554Z,14.60
2023-06-15T04:27:04.863Z,14.90
2023-06-15T04:32:09.186Z,15.00
2023-06-15T04:37:13.012Z,15.30
2023-06-15T04:42:21.213Z,15.20
2023-06-15T04:47:26.243Z,15.10
2023-06-15T04:52:31.985Z,15.20
2023-06-15T04:57:35.024Z,15.40
2023-06-15T05:02:39.365Z,15.40
2023-06-15T05:07:42.231Z,15.60
2023-06-15T05:12:45.795Z,15.60
2023-06-15T05:17:50.045Z,15.40
2023-06-15T05:22:52.983Z,15.20
2023-06-15T05:27:56.974Z,15.20
2023-06-15T05:33:01.063Z,15.20
2023-06-15T05:38:04.017Z,15.20
2023-06-15T05:43:06.869Z,15.50
2023-06-15T05:48:11.022Z,15.50
2023-06-15T05:53:14.106Z,15.50
2023-06-15T05:58:17.386Z,15.60
2023-06-15T06:03:21.396Z,15.70
2023-06-15T06:08:24.779Z,15.50
2023-06-15T06:13:27.698Z,15.50
2023-06-15T06:18:31.942Z,15.80
2023-06-15T06:23:35.897Z,15.90
2023-06-15T06:28:38.706Z,16.10
2023-06-15T06:33:43.520Z,16.30
2023-06-15T06:38:57.467Z,16.40
2023-06-15T06:44:05.248Z,16.50
2023-06-15T06:49:09.414Z,16.60
2023-06-15T06:54:12.120Z,16.80
2023-06-15T06:59:15.821Z,16.90
2023-06-15T07:04:28.448Z,17.10
2023-06-15T07:09:31.923Z,17.40
2023-06-15T07:14:34.833Z,17.60
2023-06-15T07:19:38.914Z,18.20
2023-06-15T07:24:41.734Z,18.70
2023-06-15T07:29:44.523Z,19.00
2023-06-15T07:34:48.573Z,19.70
2023-06-15T07:39:51.311Z,20.50
2023-06-15T07:44:54.026Z,21.30
2023-06-15T07:49:58.031Z,21.70
2023-06-15T07:55:00.936Z,22.30
2023-06-15T08:00:06.543Z,22.60
2023-06-15T08:05:12.977Z,23.20
2023-06-15T08:10:16.659Z,23.60
2023-06-15T08:15:19.629Z,24.00
2023-06-15T08:20:23.630Z,24.20
2023-06-15T08:25:26.768Z,24.20
2023-06-15T08:30:29.533Z,24.40
2023-06-15T08:35:33.524Z,24.60
2023-06-15T08:40:36.524Z,24.90
2023-06-15T08:45:42.709Z,25.50
2023-06-15T08:50:50.273Z,26.60
2023-06-15T08:55:54.805Z,27.20
2023-06-15T09:00:58.730Z,27.10
2023-06-15T09:06:02.900Z,27.60
2023-06-15T09:11:09.860Z,27.70
2023-06-15T09:16:13.427Z,29.00
2023-06-15T09:21:23.145Z,30.70
2023-06-15T09:26:28.350Z,32.00
2023-06-15T09:31:31.780Z,33.80
2023-06-15T09:36:42.844Z,34.30
2023-06-15T09:41:58.090Z,35.20
2023-06-15T09:47:02.838Z,35.10
2023-06-15T09:52:13.577Z,34.20
2023-06-15T09:57:19.617Z,35.10
2023-06-15T10:02:23.645Z,38.20
2023-06-15T10:07:28.041Z,39.10
2023-06-15T10:12:31.907Z,36.20
2023-06-15T10:17:36.753Z,33.70
2023-06-15T10:22:46.344Z,35.60
2023-06-15T10:27:49.497Z,37.20
2023-06-15T10:32:58.452Z,38.20
2023-06-15T10:38:14.526Z,38.40
2023-06-15T10:43:21.371Z,41.80
2023-06-15T10:48:27.244Z,43.20
2023-06-15T10:53:36.938Z,42.80
2023-06-15T10:58:55.035Z,42.40
2023-06-15T11:03:58.408Z,38.90
2023-06-15T11:09:07.789Z,39.70
2023-06-15T11:14:24.249Z,41.20
2023-06-15T11:19:27.333Z,41.10
2023-06-15T11:24:37.553Z,40.20
2023-06-15T11:29:42.835Z,40.20
2023-06-15T11:34:45.723Z,41.10
2023-06-15T11:39:50.326Z,36.60
2023-06-15T11:44:53.839Z,34.80
2023-06-15T11:50:00.171Z,33.50
2023-06-15T11:55:11.150Z,29.80
2023-06-15T12:00:15.547Z,26.90
2023-06-15T12:05:20.474Z,25.00
2023-06-15T12:10:25.072Z,23.90
2023-06-15T12:15:28.388Z,22.90
2023-06-15T12:20:31.950Z,21.30
2023-06-15T12:25:43.586Z,20.50
2023-06-15T12:30:48.371Z,20.50
2023-06-15T12:35:52.473Z,21.10
2023-06-15T12:40:57.364Z,21.60
2023-06-15T12:46:00.831Z,21.90
2023-06-15T12:51:03.866Z,22.30
2023-06-15T12:56:08.134Z,22.90
2023-06-15T13:01:11.565Z,23.90
2023-06-15T13:06:14.650Z,24.60
2023-06-15T13:11:18.717Z,26.60
2023-06-15T13:16:22.221Z,33.80
2023-06-15T13:21:25.035Z,36.80
2023-06-15T13:26:29.266Z,37.50
2023-06-15T13:31:32.206Z,38.20
2023-06-15T13:36:34.919Z,38.20
2023-06-15T13:41:38.999Z,38.80
2023-06-15T13:46:41.802Z,38.80
2023-06-15T13:51:45.077Z,36.30
2023-06-15T13:56:49.245Z,35.50
2023-06-15T14:01:52.228Z,33.60
2023-06-15T14:06:55.131Z,32.80
2023-06-15T14:11:59.783Z,34.40
2023-06-15T14:17:02.553Z,34.20
2023-06-15T14:22:05.800Z,35.00
2023-06-15T14:27:09.830Z,32.10
2023-06-15T14:32:15.972Z,33.60
2023-06-15T14:37:20.955Z,34.00
2023-06-15T14:42:29.179Z,32.00
2023-06-15T14:47:35.890Z,31.20
2023-06-15T14:52:39.317Z,30.80
2023-06-15T14:57:43.904Z,32.90
2023-06-15T15:02:48.419Z,33.50
2023-06-15T15:07:51.298Z,33.50
2023-06-15T15:12:55.910Z,34.10
2023-06-15T15:17:58.680Z,35.10
2023-06-15T15:23:01.542Z,35.20
2023-06-15T15:28:05.893Z,33.30
2023-06-15T15:33:08.591Z,31.30
2023-06-15T15:38:11.373Z,30.40
2023-06-15T15:43:16.986Z,28.90
2023-06-15T15:48:20.084Z,27.80
2023-06-15T15:53:23.078Z,27.30
2023-06-15T15:58:27.114Z,26.90
2023-06-15T16:03:30.003Z,26.70
2023-06-15T16:08:32.953Z,27.90
2023-06-15T16:13:37.010Z,28.20
2023-06-15T16:18:39.718Z,27.70
2023-06-15T16:23:42.490Z,27.50
2023-06-15T16:28:47.884Z,29.30
2023-06-15T16:33:50.741Z,30.90
2023-06-15T16:38:53.470Z,31.10
2023-06-15T16:43:58.327Z,31.00
2023-06-15T16:49:01.117Z,29.80
2023-06-15T16:54:03.809Z,29.30
2023-06-15T16:59:08.021Z,28.30
2023-06-15T17:04:12.524Z,28.50
2023-06-15T17:09:15.203Z,29.00
2023-06-15T17:14:19.583Z,28.10
2023-06-15T17:19:22.407Z,26.70
2023-06-15T17:24:26.466Z,25.80
2023-06-15T17:29:30.723Z,25.40
2023-06-15T17:34:35.388Z,26.40
2023-06-15T17:39:38.117Z,27.10
2023-06-15T17:44:42.319Z,27.30
2023-06-15T17:49:45.042Z,26.70
2023-06-15T17:54:47.774Z,25.80
2023-06-15T17:59:53.592Z,25.70
2023-06-15T18:04:56.386Z,25.60
2023-06-15T18:09:59.163Z,24.70
2023-06-15T18:15:04.475Z,24.00
2023-06-15T18:20:08.381Z,23.70
2023-06-15T18:25:11.640Z,23.20
2023-06-15T18:30:15.965Z,22.90
2023-06-15T18:35:19.019Z,22.70
2023-06-15T18:40:22.063Z,22.20
2023-06-15T18:45:26.497Z,22.00
2023-06-15T18:50:30.549Z,21.70
2023-06-15T18:55:33.554Z,21.40
2023-06-15T19:00:38.719Z,21.30
2023-06-15T19:05:41.695Z,21.20
2023-06-15T19:10:46.275Z,21.00
2023-06-15T19:15:59.392Z,20.90
2023-06-15T19:21:06.341Z,20.70
2023-06-15T19:26:18.187Z,20.50
2023-06-15T19:31:26.810Z,20.20
2023-06-15T19:36:31.298Z,20.00
2023-06-15T19:41:34.758Z,19.80
2023-06-15T19:46:41.326Z,19.50
2023-06-15T19:51:45.007Z,19.20
2023-06-15T19:56:48.227Z,19.20
2023-06-15T20:01:52.800Z,19.30
2023-06-15T20:06:55.848Z,19.20
2023-06-15T20:11:59.069Z,19.10
2023-06-15T20:17:03.620Z,18.90
2023-06-15T20:22:08.641Z,19.00
2023-06-15T20:27:16.088Z,18.70
2023-06-15T20:32:26.131Z,18.40
2023-06-15T20:37:29.465Z,18.30
2023-06-15T20:42:34.497Z,18.50
2023-06-15T20:47:42.541Z,18.40
2023-06-15T20:52:46.987Z,18.30
2023-06-15T21:08:43.494Z,17.80
2023-06-15T21:46:26.262Z,18.10
2023-06-15T21:51:40.546Z,17.90
2023-06-15T21:56:43.523Z,17.60
2023-06-15T22:01:47.681Z,17.50
2023-06-15T22:06:50.796Z,17.50
2023-06-15T22:11:53.578Z,17.40
2023-06-15T22:16:57.596Z,17.40
2023-06-15T22:22:01.537Z,17.20
2023-06-15T22:27:04.758Z,16.90
2023-06-15T22:32:09.705Z,16.70
2023-06-15T22:37:12.510Z,16.60
2023-06-15T22:42:15.227Z,16.50
2023-06-15T22:47:19.338Z,16.20
2023-06-15T22:52:23.151Z,16.00
2023-06-15T22:57:25.899Z,15.90
2023-06-15T23:02:30.020Z,16.00
2023-06-15T23:07:32.894Z,16.00
2023-06-15T23:12:35.743Z,15.90
2023-06-15T23:17:41.799Z,15.90
2023-06-15T23:22:45.746Z,15.70
2023-06-15T23:27:49.146Z,15.50
2023-06-15T23:32:53.235Z,15.40
2023-06-15T23:37:55.939Z,15.20
2023-06-15T23:42:58.680Z,14.90
2023-06-15T23:48:03.696Z,14.70
2023-06-15T23:53:07.088Z,14.90
2023-06-15T23:58:10.019Z,15.00
